Time;durP1;ratioP1;P1;durP2;ratioP2;P2;SDS_P1;SDS_P2;PMS_P1;PMS_P2;Temp;Humidity;BMP_temperature;BMP_pressure;BME280_temperature;BME280_humidity;BME280_pressure;Samples;Min_cycle;Max_cycle;Signal;HPM_P1;HPM_P2
2023/03/13 05:04:06;;;;;;;13.27;8.10;;;;;;;7.12;64.00;100764.41;5606371;31;78325;-53
2023/03/13 05:07:08;;;;;;;15.77;10.02;;;;;;;7.12;64.00;100764.41;5583983;31;34207;-53
2023/03/13 05:10:12;;;;;;;19.00;11.12;;;;;;;6.56;75.93;100771.63;5583930;31;34297;-53
2023/03/13 05:13:16;;;;;;;14.40;10.57;;;;;;;6.64;66.08;100765.09;5583967;31;33358;-54
2023/03/13 05:16:19;;;;;;;15.93;10.73;;;;;;;6.63;66.87;100766.13;5570816;32;33821;-54
2023/03/13 05:19:22;;;;;;;15.10;10.73;;;;;;;6.69;65.46;100767.81;5564028;32;34629;-54
2023/03/13 05:22:29;;;;;;;14.07;10.18;;;;;;;6.86;64.22;100773.13;5564009;32;34289;-54
2023/03/13 05:25:32;;;;;;;14.82;10.63;;;;;;;6.87;78.33;100772.87;5564364;32;33684;-53
2023/03/13 05:28:34;;;;;;;13.77;10.98;;;;;;;6.85;66.53;100776.81;5564171;32;34275;-53
2023/03/13 05:31:38;;;;;;;14.38;9.10;;;;;;;6.91;79.56;100779.31;5564142;32;33318;-53
2023/03/13 05:34:41;;;;;;;13.60;9.25;;;;;;;6.85;65.11;100784.81;5563998;32;34296;-53
2023/03/13 05:37:45;;;;;;;13.07;9.40;;;;;;;7.04;84.51;100784.28;5563955;32;33245;-53
2023/03/13 05:40:47;;;;;;;15.10;9.50;;;;;;;7.02;63.39;100786.41;5563944;32;33518;-53
2023/03/13 05:43:52;;;;;;;17.62;10.68;;;;;;;6.94;64.74;100784.16;5563936;32;34809;-54
2023/03/13 05:46:54;;;;;;;16.02;10.23;;;;;;;6.94;61.22;100786.81;5563963;32;33545;-53
2023/03/13 05:49:58;;;;;;;16.90;10.13;;;;;;;7.16;60.63;100786.84;5564089;32;34977;-54
2023/03/13 05:53:01;;;;;;;15.65;10.43;;;;;;;7.04;59.61;100781.62;5563858;32;34149;-53
2023/03/13 05:56:04;;;;;;;18.80;11.07;;;;;;;7.11;67.30;100775.31;5563684;32;34878;-53
2023/03/13 05:59:07;;;;;;;17.40;10.65;;;;;;;7.12;59.89;100777.75;5563702;32;34401;-52
2023/03/13 06:02:10;;;;;;;21.50;10.70;;;;;;;7.16;66.02;100775.38;5562838;31;34622;-53
2023/03/13 06:05:13;;;;;;;15.63;10.55;;;;;;;7.20;63.62;100787.16;5562903;32;34364;-53
2023/03/13 06:08:15;;;;;;;15.73;9.57;;;;;;;7.32;61.01;100776.34;5563335;32;33176;-53
2023/03/13 06:11:18;;;;;;;14.02;9.25;;;;;;;7.50;77.02;100782.19;5563599;32;34347;-53
2023/03/13 06:14:20;;;;;;;14.20;9.15;;;;;;;7.59;59.07;100785.22;5555211;32;33200;-53
2023/03/13 06:17:24;;;;;;;15.40;10.20;;;;;;;7.58;63.79;100786.25;5550633;32;33303;-52
2023/03/13 06:20:26;;;;;;;14.20;9.45;;;;;;;7.59;58.88;100774.56;5550358;32;34265;-53
2023/03/13 06:23:29;;;;;;;13.98;9.38;;;;;;;7.64;76.04;100774.59;5553601;32;34340;-53
2023/03/13 06:26:31;;;;;;;12.10;8.63;;;;;;;7.66;59.64;100771.69;5564907;32;33749;-53
2023/03/13 06:29:33;;;;;;;16.08;8.30;;;;;;;7.65;56.86;100772.72;5569101;32;34295;-53
2023/03/13 06:32:36;;;;;;;12.80;8.55;;;;;;;7.55;57.44;100773.47;5552323;32;33739;-53
2023/03/13 06:35:40;;;;;;;12.10;8.38;;;;;;;7.57;57.96;100773.19;5550343;32;33538;-53
2023/03/13 06:38:57;;;;;;;11.20;8.13;;;;;;;7.62;57.89;100775.94;5550107;32;33308;-53
2023/03/13 06:41:59;;;;;;;15.30;8.90;;;;;;;7.83;56.87;100776.94;5550004;32;33599;-54
2023/03/13 06:45:02;;;;;;;15.77;8.85;;;;;;;7.73;58.00;100780.31;5549798;32;33790;-53
2023/03/13 06:48:04;;;;;;;16.25;9.63;;;;;;;8.07;69.81;100788.91;5549485;32;33725;-52
2023/03/13 06:51:11;;;;;;;14.63;9.52;;;;;;;8.10;59.38;100783.06;5549971;32;33621;-53
2023/03/13 06:54:13;;;;;;;17.33;8.70;;;;;;;8.22;62.29;100783.72;5549865;32;33604;-53
2023/03/13 06:57:15;;;;;;;11.23;8.18;;;;;;;8.21;58.20;100781.28;5549778;32;33790;-53
2023/03/13 07:00:19;;;;;;;14.75;8.35;;;;;;;8.24;74.14;100778.94;5549857;32;33665;-53
2023/03/13 07:03:21;;;;;;;11.38;8.10;;;;;;;8.15;56.42;100782.31;5550039;32;33575;-52
2023/03/13 07:06:23;;;;;;;10.20;7.57;;;;;;;8.15;53.92;100771.63;5549800;32;33577;-53
2023/03/13 07:09:25;;;;;;;11.75;7.28;;;;;;;8.05;54.27;100768.87;5551635;32;33601;-53
2023/03/13 07:12:28;;;;;;;10.00;7.35;;;;;;;8.02;54.83;100778.19;5567799;32;33675;-53
2023/03/13 07:15:31;;;;;;;10.43;7.85;;;;;;;8.17;64.64;100777.50;5569459;31;34373;-53
2023/03/13 07:18:34;;;;;;;16.73;8.45;;;;;;;8.11;53.45;100779.34;5561864;32;34393;-53
2023/03/13 07:21:37;;;;;;;13.62;7.60;;;;;;;8.14;55.11;100783.34;5565671;32;33800;-53
2023/03/13 07:24:39;;;;;;;10.20;7.55;;;;;;;8.27;54.38;100774.91;5565805;32;33566;-52
2023/03/13 07:27:42;;;;;;;15.48;7.50;;;;;;;8.48;58.83;100773.25;5555931;32;33673;-53
2023/03/13 07:30:44;;;;;;;14.15;7.70;;;;;;;8.53;60.19;100770.59;5559425;32;33570;-53
2023/03/13 07:33:46;;;;;;;11.43;7.40;;;;;;;8.41;54.19;100761.97;5558758;32;34256;-53
2023/03/13 07:36:49;;;;;;;10.52;7.37;;;;;;;8.51;59.26;100763.91;5557240;32;33808;-53
2023/03/13 07:39:51;;;;;;;12.05;7.80;;;;;;;8.96;73.37;100765.25;5563101;32;33653;-56
2023/03/13 07:42:54;;;;;;;12.95;8.02;;;;;;;8.98;67.79;100760.47;5551834;32;34310;-55
2023/03/13 07:46:04;;;;;;;9.68;7.28;;;;;;;8.90;53.98;100759.06;5563563;32;33756;-55
2023/03/13 07:49:07;;;;;;;15.57;7.70;;;;;;;9.17;67.33;100761.59;5554853;32;33597;-55
2023/03/13 07:52:09;;;;;;;10.05;7.43;;;;;;;9.15;52.03;100753.06;5552046;32;34381;-55
2023/03/13 07:55:12;;;;;;;13.02;7.03;;;;;;;9.02;51.98;100743.62;5550144;32;33625;-55
2023/03/13 07:58:15;;;;;;;10.88;7.72;;;;;;;9.12;68.61;100742.88;5553695;32;33702;-55
2023/03/13 08:01:23;;;;;;;13.90;8.00;;;;;;;9.08;52.17;100739.91;5559518;32;34318;-55
2023/03/13 08:04:29;;;;;;;22.17;7.90;;;;;;;9.01;50.70;100731.34;5558858;32;34374;-56
2023/03/13 08:07:31;;;;;;;12.52;7.28;;;;;;;9.43;59.67;100730.41;5553519;32;34675;-59
2023/03/13 08:10:34;;;;;;;11.27;7.20;;;;;;;9.51;68.02;100729.09;5547795;32;33125;-55
2023/03/13 08:13:37;;;;;;;9.50;7.25;;;;;;;9.32;51.33;100712.72;5558003;32;33832;-55
2023/03/13 08:16:39;;;;;;;11.05;7.18;;;;;;;9.35;60.70;100718.34;5547818;32;33583;-55
2023/03/13 08:19:42;;;;;;;12.98;7.97;;;;;;;9.34;52.78;100716.75;5556131;32;33810;-56
2023/03/13 08:22:45;;;;;;;10.98;7.72;;;;;;;9.39;51.50;100708.72;5550793;32;33524;-55
2023/03/13 08:25:47;;;;;;;10.65;7.55;;;;;;;9.40;50.30;100707.66;5552592;32;34110;-55
2023/03/13 08:28:56;;;;;;;14.23;7.55;;;;;;;9.73;63.99;100705.56;5562926;32;33892;-55
2023/03/13 08:31:58;;;;;;;13.00;8.30;;;;;;;9.89;53.88;100701.03;5562997;32;33671;-53
2023/03/13 08:35:00;;;;;;;11.60;8.13;;;;;;;9.76;50.28;100697.00;5560069;32;34847;-53
2023/03/13 08:38:02;;;;;;;13.62;8.27;;;;;;;9.80;62.97;100692.72;5564853;32;34155;-53
2023/03/13 08:41:05;;;;;;;11.52;8.80;;;;;;;9.95;53.18;100693.81;5568131;32;34328;-53
2023/03/13 08:44:10;;;;;;;12.13;8.98;;;;;;;9.80;49.82;100687.38;5566580;32;33601;-53
2023/03/13 08:47:13;;;;;;;11.83;9.20;;;;;;;10.11;58.90;100690.03;5567852;32;34474;-53
2023/03/13 08:50:15;;;;;;;11.70;8.18;;;;;;;10.15;51.51;100688.44;5567850;32;34156;-54
2023/03/13 08:53:18;;;;;;;13.30;9.65;;;;;;;10.09;50.20;100690.31;5567227;32;33691;-53
2023/03/13 08:56:23;;;;;;;13.55;9.65;;;;;;;10.20;55.00;100677.72;5567320;32;33879;-53
2023/03/13 08:59:25;;;;;;;10.57;8.73;;;;;;;10.24;62.04;100672.62;5566766;32;34537;-53
2023/03/13 09:02:27;;;;;;;11.57;9.20;;;;;;;10.44;56.19;100667.25;5565661;32;33334;-53
2023/03/13 09:05:30;;;;;;;13.30;8.85;;;;;;;10.63;56.56;100662.09;5563249;32;35012;-54
2023/03/13 09:08:33;;;;;;;11.57;7.30;;;;;;;10.53;49.85;100652.22;5564270;32;34424;-54
2023/03/13 09:11:38;;;;;;;12.05;8.20;;;;;;;10.51;57.04;100656.25;5562861;32;33899;-53
2023/03/13 09:14:40;;;;;;;11.70;8.13;;;;;;;10.59;48.74;100655.66;5564207;32;33750;-53
2023/03/13 09:17:43;;;;;;;19.05;9.20;;;;;;;10.54;47.13;100661.84;5566501;32;33587;-53
2023/03/13 09:20:45;;;;;;;11.68;8.40;;;;;;;10.74;58.22;100657.50;5567765;32;33683;-54
2023/03/13 09:23:50;;;;;;;13.15;8.88;;;;;;;10.91;48.17;100651.81;5563694;32;33718;-53
2023/03/13 09:26:53;;;;;;;14.55;7.30;;;;;;;11.18;62.97;100648.69;5563471;32;33797;-55
2023/03/13 09:30:04;;;;;;;11.40;8.63;;;;;;;11.21;48.42;100645.47;5558413;32;34361;-53
2023/03/13 09:33:06;;;;;;;12.48;8.57;;;;;;;11.36;55.10;100640.00;5555500;32;34359;-53
2023/03/13 09:36:09;;;;;;;10.93;6.90;;;;;;;11.38;50.71;100634.34;5566331;32;34283;-53
2023/03/13 09:39:12;;;;;;;14.15;7.07;;;;;;;11.39;51.08;100636.78;5567006;32;33700;-53
2023/03/13 09:42:19;;;;;;;11.93;7.97;;;;;;;11.47;55.13;100638.06;5564227;32;34499;-53
2023/03/13 09:45:35;;;;;;;12.32;8.32;;;;;;;11.75;56.08;100625.75;5561711;32;33646;-53
2023/03/13 09:48:47;;;;;;;14.73;7.82;;;;;;;12.00;64.25;100616.69;5565771;32;33113;-53
2023/03/13 09:51:57;;;;;;;12.95;8.02;;;;;;;11.86;54.02;100613.87;5566954;32;34333;-53
2023/03/13 09:55:02;;;;;;;15.38;8.60;;;;;;;11.93;49.06;100616.22;5568972;32;33618;-53
2023/03/13 09:58:18;;;;;;;15.55;8.95;;;;;;;11.89;47.27;100618.69;5569784;32;34260;-53
2023/03/13 10:01:27;;;;;;;12.73;7.95;;;;;;;11.90;63.81;100611.41;5563891;32;34454;-53
2023/03/13 10:04:37;;;;;;;10.65;7.80;;;;;;;12.02;51.23;100613.72;5566517;32;33642;-53
2023/03/13 10:07:42;;;;;;;14.00;7.90;;;;;;;11.91;44.31;100605.75;5566840;32;33592;-53
2023/03/13 10:10:59;;;;;;;11.02;7.07;;;;;;;12.11;49.39;100583.25;5569243;32;33726;-53
2023/03/13 10:14:17;;;;;;;13.85;7.32;;;;;;;12.36;64.54;100584.88;5564904;32;34273;-53
2023/03/13 10:17:39;;;;;;;13.93;7.50;;;;;;;12.23;46.92;100574.81;5565087;32;33579;-53
2023/03/13 10:20:42;;;;;;;10.50;7.18;;;;;;;12.48;58.14;100587.13;5566246;32;33687;-54
2023/03/13 10:23:54;;;;;;;13.85;7.75;;;;;;;12.54;59.34;100577.91;5567721;32;33830;-54
2023/03/13 10:26:56;;;;;;;16.80;7.85;;;;;;;12.58;54.14;100580.81;5552439;32;33666;-54
2023/03/13 10:29:59;;;;;;;10.20;6.68;;;;;;;12.54;46.10;100569.06;5556542;32;33466;-54
2023/03/13 10:33:07;;;;;;;12.60;7.43;;;;;;;12.68;54.45;100568.06;5562069;32;34322;-54
2023/03/13 10:36:12;;;;;;;16.37;7.12;;;;;;;12.69;50.78;100572.34;5563660;32;33920;-54
2023/03/13 10:39:17;;;;;;;12.43;6.62;;;;;;;12.79;52.91;100573.31;5566908;32;32917;-54
2023/03/13 10:42:26;;;;;;;13.52;7.25;;;;;;;12.76;48.24;100563.91;5565958;32;33712;-54
2023/03/13 10:45:32;;;;;;;15.55;7.30;;;;;;;12.82;45.08;100570.03;5562478;32;33922;-54
2023/03/13 10:48:38;;;;;;;14.87;6.70;;;;;;;12.89;44.81;100559.72;5567560;32;34318;-54
2023/03/13 10:51:47;;;;;;;10.93;7.10;;;;;;;12.91;50.45;100557.50;5567534;32;33793;-54
2023/03/13 10:54:49;;;;;;;12.65;7.82;;;;;;;13.04;60.37;100550.59;5567547;32;34269;-54
2023/03/13 10:58:00;;;;;;;16.17;8.25;;;;;;;13.17;43.25;100545.28;5565396;32;33610;-53
2023/03/13 11:01:16;;;;;;;15.82;8.32;;;;;;;13.16;46.65;100543.69;5567362;32;34323;-53
2023/03/13 11:04:26;;;;;;;11.55;7.40;;;;;;;13.11;42.12;100537.56;5569330;32;33646;-53
2023/03/13 11:07:36;;;;;;;15.43;7.93;;;;;;;13.25;50.52;100540.38;5567913;32;33438;-53
2023/03/13 11:10:51;;;;;;;12.32;7.62;;;;;;;13.34;41.86;100528.63;5567372;32;34020;-54
2023/03/13 11:13:53;;;;;;;15.05;7.95;;;;;;;13.39;50.40;100525.06;5569129;32;33801;-55
2023/03/13 11:17:31;;;;;;;11.45;8.07;;;;;;;13.25;42.89;100519.63;5567383;32;33784;-55
2023/03/13 11:20:38;;;;;;;16.45;8.07;;;;;;;13.17;42.68;100515.66;5549129;32;33922;-56
2023/03/13 11:23:44;;;;;;;13.93;7.80;;;;;;;13.25;42.84;100510.75;5556075;32;34440;-56
2023/03/13 11:27:14;;;;;;;13.70;7.85;;;;;;;13.39;44.23;100515.06;5555655;32;33367;-56
2023/03/13 11:30:35;;;;;;;15.93;8.18;;;;;;;13.40;41.50;100507.78;5557293;32;33700;-56
2023/03/13 11:34:11;;;;;;;14.05;8.20;;;;;;;13.52;44.99;100500.03;5560841;32;34343;-56
2023/03/13 11:37:18;;;;;;;12.95;8.13;;;;;;;13.50;43.94;100486.06;5560217;32;34352;-56
2023/03/13 11:40:26;;;;;;;14.87;8.02;;;;;;;13.50;41.74;100485.28;5556442;32;34497;-57
2023/03/13 11:44:03;;;;;;;12.98;7.80;;;;;;;13.57;42.79;100478.38;5553156;32;32404;-56
2023/03/13 11:47:35;;;;;;;11.65;7.32;;;;;;;13.57;43.84;100473.00;5558510;32;33918;-56
2023/03/13 11:50:48;;;;;;;11.57;7.90;;;;;;;13.63;44.39;100463.72;5560852;32;34803;-56
2023/03/13 11:54:30;;;;;;;12.82;7.87;;;;;;;13.65;41.34;100455.38;5551947;32;34353;-57
2023/03/13 11:57:47;;;;;;;11.63;7.55;;;;;;;13.68;42.59;100456.69;5547706;32;34172;-56
2023/03/13 12:01:11;;;;;;;15.75;7.72;;;;;;;13.77;43.20;100452.97;5556288;32;33714;-56
2023/03/13 12:04:19;;;;;;;16.02;7.25;;;;;;;13.85;44.71;100438.00;5560466;32;34480;-56
2023/03/13 12:07:31;;;;;;;15.15;6.82;;;;;;;13.92;43.66;100419.53;5556928;32;33708;-56
2023/03/13 12:10:42;;;;;;;16.35;7.57;;;;;;;13.94;42.05;100425.44;5559693;32;33432;-56
2023/03/13 12:14:00;;;;;;;9.80;6.82;;;;;;;14.02;43.42;100424.72;5556135;32;33339;-56
2023/03/13 12:17:09;;;;;;;10.15;6.80;;;;;;;13.99;41.31;100425.31;5558136;31;33645;-56
2023/03/13 12:20:20;;;;;;;11.20;6.62;;;;;;;14.07;39.67;100416.53;5557325;32;33339;-56
2023/03/13 12:23:49;;;;;;;9.20;5.87;;;;;;;14.20;45.93;100393.31;5555994;32;34004;-56
2023/03/13 12:27:10;;;;;;;11.38;5.97;;;;;;;14.40;51.81;100389.34;5553220;32;33954;-56
2023/03/13 12:30:22;;;;;;;16.60;6.57;;;;;;;14.46;57.91;100385.44;5559659;32;33801;-56
2023/03/13 12:33:54;;;;;;;8.48;5.70;;;;;;;14.41;42.69;100390.19;5558997;32;33707;-56
2023/03/13 12:37:35;;;;;;;14.93;5.47;;;;;;;14.49;48.86;100382.13;5539127;32;33159;-56
2023/03/13 12:40:48;;;;;;;11.82;5.50;;;;;;;14.52;45.02;100384.25;5539584;31;33648;-56
2023/03/13 12:43:54;;;;;;;12.48;5.12;;;;;;;14.59;49.48;100386.53;5555902;32;33633;-56
2023/03/13 12:47:25;;;;;;;14.57;4.87;;;;;;;14.64;45.60;100372.13;5554825;32;33834;-56
2023/03/13 12:51:00;;;;;;;10.98;4.57;;;;;;;14.66;44.62;100367.22;5560960;31;33728;-56
2023/03/13 12:54:21;;;;;;;9.68;4.47;;;;;;;14.65;43.37;100342.13;5566243;31;33088;-57
2023/03/13 12:57:47;;;;;;;5.70;4.00;;;;;;;14.73;47.55;100351.38;5563142;31;33169;-56
2023/03/13 13:00:52;;;;;;;7.43;4.35;;;;;;;14.70;42.94;100323.12;5556143;31;34415;-57
2023/03/13 13:03:58;;;;;;;5.85;3.87;;;;;;;14.76;49.76;100316.47;5555579;32;33708;-56
2023/03/13 13:07:20;;;;;;;10.02;4.40;;;;;;;14.81;43.82;100304.78;5547199;32;33315;-56
2023/03/13 13:10:25;;;;;;;8.98;5.20;;;;;;;14.83;41.93;100304.44;5547946;32;33626;-56
2023/03/13 13:13:30;;;;;;;12.73;5.35;;;;;;;14.93;54.40;100302.28;5548199;32;33944;-56
2023/03/13 13:16:33;;;;;;;8.10;5.15;;;;;;;14.95;48.45;100299.28;5547983;32;33595;-57
2023/03/13 13:19:40;;;;;;;8.23;4.72;;;;;;;14.88;46.19;100307.81;5547998;32;33809;-57
2023/03/13 13:22:45;;;;;;;7.57;4.47;;;;;;;14.96;45.94;100307.03;5549683;32;33719;-57
2023/03/13 13:25:48;;;;;;;8.77;4.62;;;;;;;14.91;46.93;100319.91;5567912;32;33667;-57
2023/03/13 13:28:51;;;;;;;10.00;4.50;;;;;;;14.94;45.79;100311.97;5568582;32;34362;-56
2023/03/13 13:31:58;;;;;;;7.15;3.80;;;;;;;14.87;42.74;100310.84;5569584;32;33746;-56
2023/03/13 13:35:29;;;;;;;4.85;3.40;;;;;;;14.90;41.61;100296.69;5568556;32;34342;-56
2023/03/13 13:38:35;;;;;;;8.00;4.30;;;;;;;14.99;45.41;100295.63;5569416;32;34473;-56
2023/03/13 13:41:39;;;;;;;8.02;4.20;;;;;;;14.98;43.90;100290.56;5568252;32;33915;-57
2023/03/13 13:45:01;;;;;;;12.07;4.25;;;;;;;15.09;48.71;100285.66;5568766;32;33683;-57
2023/03/13 13:48:27;;;;;;;6.22;3.90;;;;;;;15.07;41.96;100283.28;5564374;32;33730;-56
2023/03/13 13:51:30;;;;;;;6.70;4.20;;;;;;;15.12;43.61;100268.84;5563314;32;33981;-56
2023/03/13 13:54:54;;;;;;;13.23;3.50;;;;;;;15.18;45.51;100262.97;5569871;32;33750;-56
2023/03/13 13:58:12;;;;;;;6.25;3.53;;;;;;;15.20;41.36;100263.47;5569902;32;34354;-56
2023/03/13 14:01:15;;;;;;;6.43;3.50;;;;;;;15.19;41.86;100240.25;5569568;32;33740;-57
2023/03/13 14:04:27;;;;;;;9.10;3.62;;;;;;;15.26;42.09;100243.31;5569738;32;33770;-56
2023/03/13 14:07:40;;;;;;;5.47;3.55;;;;;;;15.27;46.18;100247.59;5569465;32;34319;-57
2023/03/13 14:10:52;;;;;;;12.73;3.80;;;;;;;15.44;48.22;100233.34;5569288;32;33492;-56
2023/03/13 14:14:18;;;;;;;8.48;3.67;;;;;;;15.43;42.48;100249.84;5569864;32;33629;-56
2023/03/13 14:17:20;;;;;;;11.18;3.75;;;;;;;15.46;45.08;100252.72;5569369;32;34641;-56
2023/03/13 14:20:28;;;;;;;9.68;3.97;;;;;;;15.49;45.98;100246.66;5569188;32;33495;-57
2023/03/13 14:23:41;;;;;;;8.48;3.47;;;;;;;15.35;42.70;100239.81;5565545;32;33688;-56
2023/03/13 14:26:44;;;;;;;6.15;3.58;;;;;;;15.44;42.18;100244.13;5569104;32;34404;-56
2023/03/13 14:30:08;;;;;;;10.60;3.47;;;;;;;15.38;41.34;100237.28;5569433;32;33525;-57
2023/03/13 14:33:11;;;;;;;9.40;4.22;;;;;;;15.41;44.66;100241.28;5569198;32;33627;-56
2023/03/13 14:36:13;;;;;;;8.52;3.22;;;;;;;15.42;43.18;100234.75;5569054;32;33825;-56
2023/03/13 14:39:19;;;;;;;8.25;4.32;;;;;;;15.47;42.74;100234.63;5569491;32;33892;-57
2023/03/13 14:42:21;;;;;;;10.48;3.20;;;;;;;15.52;48.53;100235.22;5569292;32;33888;-57
2023/03/13 14:45:26;;;;;;;7.22;3.22;;;;;;;15.49;43.33;100233.16;5569427;32;33065;-56
2023/03/13 14:48:32;;;;;;;11.30;3.22;;;;;;;15.49;42.70;100240.47;5569023;32;34528;-56
2023/03/13 14:51:38;;;;;;;7.28;2.80;;;;;;;15.62;48.96;100238.75;5569304;32;33678;-56
2023/03/13 14:54:54;;;;;;;;;;;;;;;15.61;43.10;100235.25;5569393;32;33642;-57
2023/03/13 14:58:03;;;;;;;9.00;2.87;;;;;;;15.70;48.16;100233.37;5563427;32;34099;-57
2023/03/13 15:01:32;;;;;;;7.85;3.55;;;;;;;15.76;43.02;100219.69;5569501;32;34178;-57
2023/03/13 15:04:58;;;;;;;5.90;3.10;;;;;;;15.68;47.29;100218.59;5566965;31;34364;-56
2023/03/13 15:08:01;;;;;;;4.87;3.08;;;;;;;15.75;43.32;100213.50;5569074;32;33577;-57
2023/03/13 15:11:23;;;;;;;5.47;3.00;;;;;;;15.69;42.92;100210.19;5569069;32;33813;-57
2023/03/13 15:14:39;;;;;;;5.82;2.62;;;;;;;15.66;45.00;100208.12;5569569;32;33772;-57
2023/03/13 15:17:42;;;;;;;3.90;2.10;;;;;;;15.59;45.68;100220.47;5569619;32;34291;-57
2023/03/13 15:20:52;;;;;;;9.13;2.12;;;;;;;15.61;43.39;100202.81;5568923;32;33561;-56
2023/03/13 15:24:09;;;;;;;4.45;2.10;;;;;;;15.72;44.61;100203.31;5568945;32;33679;-57
2023/03/13 15:27:20;;;;;;;7.47;2.25;;;;;;;15.59;42.55;100183.41;5569312;32;34401;-57
2023/03/13 15:30:23;;;;;;;6.45;2.80;;;;;;;15.50;47.66;100177.25;5568941;32;33661;-57
2023/03/13 15:33:28;;;;;;;7.10;2.60;;;;;;;15.38;43.87;100182.47;5569100;32;34380;-56
2023/03/13 15:36:30;;;;;;;7.17;2.73;;;;;;;15.40;46.41;100183.75;5569178;32;33674;-57
2023/03/13 15:39:33;;;;;;;10.45;2.47;;;;;;;15.36;47.63;100184.69;5569261;32;33810;-57
2023/03/13 15:42:35;;;;;;;5.60;2.50;;;;;;;15.29;46.05;100179.75;5567883;32;33895;-57
2023/03/13 15:45:40;;;;;;;7.05;2.35;;;;;;;15.25;43.70;100178.81;5568338;32;34151;-57
2023/03/13 15:48:42;;;;;;;8.68;3.15;;;;;;;15.20;48.68;100168.97;5568184;32;33720;-57
2023/03/13 15:51:45;;;;;;;7.95;2.40;;;;;;;15.09;44.81;100174.97;5568598;32;33836;-57
2023/03/13 15:54:49;;;;;;;9.32;2.78;;;;;;;15.05;44.74;100177.50;5566996;32;33732;-57
2023/03/13 15:57:51;;;;;;;8.10;2.40;;;;;;;15.07;49.05;100161.81;5568751;32;34410;-57
2023/03/13 16:00:55;;;;;;;6.12;2.50;;;;;;;14.95;44.09;100156.22;5569019;32;33667;-56
2023/03/13 16:03:59;;;;;;;6.35;2.60;;;;;;;14.89;46.72;100162.87;5568737;32;33613;-57
2023/03/13 16:07:01;;;;;;;10.50;2.65;;;;;;;14.90;52.41;100162.56;5568989;32;34412;-56
2023/03/13 16:10:13;;;;;;;7.95;2.35;;;;;;;14.78;49.95;100170.47;5568845;32;33780;-57
2023/03/13 16:13:16;;;;;;;8.82;2.75;;;;;;;14.79;50.54;100169.34;5569063;32;34338;-57
2023/03/13 16:16:27;;;;;;;5.50;2.78;;;;;;;14.75;47.63;100158.38;5568987;32;33670;-56
2023/03/13 16:19:29;;;;;;;7.75;3.50;;;;;;;14.69;45.91;100151.53;5568885;32;34308;-57
2023/03/13 16:22:32;;;;;;;11.52;5.53;;;;;;;14.68;67.46;100152.66;5569058;32;33728;-57
2023/03/13 16:25:34;;;;;;;5.97;3.50;;;;;;;14.68;53.72;100159.97;5569195;32;33801;-57
2023/03/13 16:28:36;;;;;;;7.85;2.90;;;;;;;14.55;48.15;100161.66;5568855;32;33641;-56
2023/03/13 16:31:39;;;;;;;7.93;2.60;;;;;;;14.62;52.84;100148.50;5568836;32;34357;-56
2023/03/13 16:34:41;;;;;;;7.62;2.10;;;;;;;14.61;51.32;100155.00;5568964;32;34337;-57
2023/03/13 16:37:44;;;;;;;5.55;2.60;;;;;;;14.48;51.06;100143.19;5568779;32;34430;-56
2023/03/13 16:40:46;;;;;;;9.85;2.37;;;;;;;14.57;50.71;100143.28;5568468;32;33920;-56
2023/03/13 16:43:49;;;;;;;4.53;2.30;;;;;;;14.42;48.91;100155.22;5568930;32;33643;-56
2023/03/13 16:46:51;;;;;;;7.10;2.60;;;;;;;14.40;50.79;100157.41;5568584;32;33689;-57
2023/03/13 16:50:20;;;;;;;4.53;2.37;;;;;;;14.30;49.34;100161.22;5568678;32;34465;-56
2023/03/13 16:55:36;;;;;;;7.75;2.42;;;;;;;14.78;48.39;100149.66;5604781;31;128549;-56
2023/03/13 16:58:38;;;;;;;4.22;2.55;;;;;;;14.78;48.39;100149.66;5583816;32;33528;-56
2023/03/13 17:01:41;;;;;;;5.80;2.72;;;;;;;14.29;53.61;100142.63;5583782;31;33832;-56
2023/03/13 17:04:44;;;;;;;8.63;3.10;;;;;;;14.29;50.99;100156.13;5583955;31;33617;-56
2023/03/13 17:07:49;;;;;;;8.15;3.20;;;;;;;14.16;51.07;100167.78;5584064;31;33185;-56
2023/03/13 17:10:51;;;;;;;8.98;3.22;;;;;;;14.24;53.96;100173.22;5583712;31;33722;-56
2023/03/13 17:13:53;;;;;;;3.95;2.75;;;;;;;14.29;57.27;100175.00;5583786;32;34186;-57
2023/03/13 17:16:56;;;;;;;7.93;3.15;;;;;;;14.19;49.26;100169.88;5566606;32;34407;-56
2023/03/13 17:19:58;;;;;;;5.43;3.42;;;;;;;14.10;50.63;100164.41;5564057;32;33726;-56
2023/03/13 17:23:01;;;;;;;6.75;3.37;;;;;;;14.09;52.26;100160.94;5564262;32;34359;-57
2023/03/13 17:26:03;;;;;;;6.12;3.37;;;;;;;14.19;52.71;100164.47;5563941;32;34229;-56
2023/03/13 17:29:06;;;;;;;13.02;2.87;;;;;;;14.05;50.97;100157.25;5564030;32;33793;-56
2023/03/13 17:32:13;;;;;;;6.45;3.20;;;;;;;14.00;49.54;100156.59;5563972;32;34297;-56
2023/03/13 17:35:17;;;;;;;5.10;2.97;;;;;;;13.86;50.14;100160.16;5563879;32;33764;-56
2023/03/13 17:38:19;;;;;;;7.15;2.85;;;;;;;13.97;54.64;100159.91;5563903;32;33697;-56
2023/03/13 17:41:25;;;;;;;5.93;2.97;;;;;;;13.94;51.78;100164.03;5563714;32;34276;-56
2023/03/13 17:44:27;;;;;;;6.12;3.03;;;;;;;13.92;63.61;100160.84;5563261;32;33689;-56
2023/03/13 17:47:30;;;;;;;6.68;3.47;;;;;;;13.97;54.63;100174.19;5563857;32;33671;-56
2023/03/13 17:50:32;;;;;;;6.35;3.45;;;;;;;13.84;49.89;100178.53;5572484;31;34249;-56
